»·PEaware :: 401MA KBUR-KDAG

401MA :: KBUR-KDAG

FLIGHT INFORMATION

Flight Status: Arrived
Operator: Unknown
More flights by this operator :: More flights under this callsign
Pilot: Mike N. (15036)
Aircraft: BELL TEXTRON MODEL 412
(B412)
More flights by this aircraft type
Origin: KBUR Bob Hope-Burbank
United States
Destination: KDAG Barstow-Daggett
United States
More flights between these airports :: More routes between these airports
Route: +VNY3 DAG
File this flight plan on PilotEdge
Remarks:
Altitude:
(Current/Filed)
7,000ft
Speed:
(Current/Filed)
115kts
Departed: 20-Apr-17 08:44 PM
Arrived: 20-Apr-17 09:49 PM
Distance/Time
Traveled:
87nm/1:05
Distance/Time
To Go:
Arrived

Flight Plot

Page will automatically refresh every two minutes.

Flight plan parsing failed; only flown route is shown


Map Options




Map Legend


Flown Route
Filed Route
Departure Airport
Arrival Airport
Navaid (VOR, NDB)
Fix

Horizontal Profiles

Position Reports

Time Latitude Longitude Heading Altitude Ground
Speed
20-Apr-17 20:34 34.196424 -118.367635 90 782ft 0kts
20-Apr-17 20:35 34.196424 -118.367635 90 782ft 0kts
20-Apr-17 20:36 34.196424 -118.367635 90 782ft 0kts
20-Apr-17 20:37 34.196424 -118.367635 90 782ft 0kts
20-Apr-17 20:38 34.196424 -118.367635 90 782ft 0kts
20-Apr-17 20:39 34.196424 -118.367635 90 782ft 0kts
20-Apr-17 20:40 34.196424 -118.367635 90 782ft 0kts
20-Apr-17 20:41 34.196424 -118.367635 90 782ft 0kts
20-Apr-17 20:42 34.196424 -118.367635 90 782ft 0kts
20-Apr-17 20:43 34.196409 -118.367558 4 782ft 0kts
20-Apr-17 20:44 34.196409 -118.367558 4 782ft 0kts
20-Apr-17 20:45 34.192511 -118.378275 226 1424ft 70kts
20-Apr-17 20:46 34.177699 -118.391930 225 2368ft 69kts
20-Apr-17 20:47 34.168217 -118.411388 302 3309ft 77kts
20-Apr-17 20:48 34.179331 -118.432457 314 4319ft 74kts
20-Apr-17 20:49 34.195139 -118.452717 313 5291ft 88kts
20-Apr-17 20:50 34.210132 -118.476515 317 6268ft 90kts
20-Apr-17 20:51 34.228040 -118.496865 323 7269ft 88kts
20-Apr-17 20:53 34.248088 -118.478616 38 8253ft 107kts
20-Apr-17 20:54 34.268755 -118.453090 31 8754ft 111kts
20-Apr-17 20:55 34.292342 -118.427261 33 8959ft 118kts
20-Apr-17 20:56 34.316482 -118.401135 31 8971ft 117kts
20-Apr-17 20:57 34.341124 -118.375491 31 8961ft 117kts
20-Apr-17 20:58 34.366261 -118.346263 35 8978ft 127kts
20-Apr-17 20:59 34.391428 -118.315825 32 8971ft 126kts
20-Apr-17 21:00 34.417484 -118.287006 35 8901ft 130kts
20-Apr-17 21:01 34.443980 -118.257125 17 8929ft 124kts
20-Apr-17 21:02 34.471309 -118.228685 33 8961ft 132kts
20-Apr-17 21:03 34.498306 -118.199008 29 8966ft 130kts
20-Apr-17 21:04 34.526039 -118.169726 29 8978ft 132kts
20-Apr-17 21:05 34.554063 -118.140866 29 8985ft 133kts
20-Apr-17 21:06 34.582194 -118.111567 28 9005ft 133kts
20-Apr-17 21:07 34.610263 -118.082657 28 9000ft 132kts
20-Apr-17 21:08 34.632085 -118.047100 74 8980ft 149kts
20-Apr-17 21:09 34.637344 -117.997939 72 8990ft 147kts
20-Apr-17 21:10 34.643253 -117.948913 74 8986ft 148kts
20-Apr-17 21:11 34.648532 -117.899773 74 8981ft 148kts
20-Apr-17 21:12 34.653635 -117.850352 77 8978ft 148kts
20-Apr-17 21:13 34.657954 -117.800653 73 8984ft 148kts
20-Apr-17 21:14 34.665448 -117.752273 73 8980ft 147kts
20-Apr-17 21:15 34.674865 -117.704758 79 9005ft 145kts
20-Apr-17 21:16 34.688112 -117.658734 67 9024ft 145kts
20-Apr-17 21:17 34.695377 -117.610316 80 9029ft 145kts
20-Apr-17 21:18 34.706949 -117.564291 60 9056ft 140kts
20-Apr-17 21:19 34.721106 -117.519575 62 9029ft 144kts
20-Apr-17 21:20 34.733934 -117.473623 63 9015ft 144kts
20-Apr-17 21:21 34.745951 -117.427315 64 8996ft 145kts
20-Apr-17 21:22 34.757747 -117.380728 64 8996ft 145kts
20-Apr-17 21:23 34.769414 -117.334325 65 9009ft 147kts
20-Apr-17 21:24 34.780786 -117.286931 66 8991ft 146kts
20-Apr-17 21:25 34.792148 -117.239267 65 9003ft 147kts
20-Apr-17 21:26 34.804154 -117.191712 64 8992ft 146kts
20-Apr-17 21:27 34.816340 -117.144518 64 8992ft 147kts
20-Apr-17 21:28 34.828740 -117.096894 64 9024ft 147kts
20-Apr-17 21:29 34.841393 -117.049428 65 9000ft 148kts
20-Apr-17 21:30 34.854039 -117.002058 66 8987ft 148kts
20-Apr-17 21:31 34.866636 -116.954476 66 9001ft 145kts
20-Apr-17 21:32 34.879807 -116.908084 66 8276ft 145kts
20-Apr-17 21:33 34.892583 -116.861774 70 7295ft 145kts
20-Apr-17 21:34 34.903384 -116.814828 69 7069ft 143kts
20-Apr-17 21:35 34.914871 -116.769618 68 6992ft 137kts
20-Apr-17 21:36 34.926015 -116.724929 69 6990ft 137kts
20-Apr-17 21:37 34.936582 -116.680314 69 6997ft 134kts
20-Apr-17 21:38 34.946939 -116.636185 69 6994ft 134kts
20-Apr-17 21:39 34.958118 -116.592617 65 6988ft 134kts
20-Apr-17 21:40 34.965035 -116.547651 85 6755ft 135kts
20-Apr-17 21:41 34.977520 -116.512119 335 5643ft 116kts
20-Apr-17 21:42 34.978602 -116.544019 247 5095ft 107kts
20-Apr-17 21:43 34.962342 -116.574571 236 4975ft 107kts
20-Apr-17 21:44 34.944692 -116.603188 248 4504ft 103kts
20-Apr-17 21:45 34.934409 -116.635587 237 3926ft 102kts
20-Apr-17 21:46 34.919006 -116.664716 241 3665ft 103kts
20-Apr-17 21:47 34.904459 -116.694293 240 3621ft 102kts
20-Apr-17 21:48 34.889816 -116.723853 241 3406ft 101kts
20-Apr-17 21:49 34.875598 -116.752215 240 3128ft 91kts
20-Apr-17 21:50 34.865104 -116.772064 239 2371ft 41kts
20-Apr-17 21:51 34.860279 -116.782470 233 2002ft 26kts
20-Apr-17 21:52 34.858663 -116.784896 234 1936ft 3kts
20-Apr-17 21:53 34.856368 -116.789562 233 1949ft 11kts
20-Apr-17 21:54 34.855430 -116.791757 256 2002ft 4kts
20-Apr-17 21:55 34.856215 -116.789986 8 1947ft 10kts
20-Apr-17 21:56 34.858245 -116.789917 166 1953ft 12kts
20-Apr-17 21:57 34.859696 -116.788455 41 1970ft 12kts
20-Apr-17 21:58 34.859750 -116.787479 91 1930ft 0kts
20-Apr-17 21:59 34.859750 -116.787479 91 1930ft 0kts
20-Apr-17 22:00 34.859750 -116.787479 91 1930ft 0kts
20-Apr-17 22:01 34.859750 -116.787479 91 1930ft 0kts
20-Apr-17 22:02 34.859750 -116.787479 91 1930ft 0kts
20-Apr-17 22:03 34.859750 -116.787479 91 1930ft 0kts
20-Apr-17 22:04 34.859750 -116.787479 91 1930ft 0kts
20-Apr-17 22:05 34.859750 -116.787479 91 1930ft 0kts
20-Apr-17 22:06 34.859750 -116.787479 91 1930ft 0kts

Navigation Log

Ident Type
Flight plan parsing failed, navigation log unavailable